Time,TemperatureF,DewpointF,PressureIn,WindDirection,WindDirectionDegrees,WindSpeedMPH,WindSpeedGustMPH,Humidity,HourlyPrecipIn,Conditions,Clouds,dailyrainin,SolarRadiationWatts/m^2,SoftwareType,DateUTC
2013-05-19 00:06:00,76.6,72.0,29.74,SSE,167,1.0,4.0,84,0.00,,,0.00,0,weatherlink.com 1.10,2013-05-19 05:06:00,
2013-05-19 00:21:00,76.3,72.0,29.74,South,169,1.0,6.0,85,0.00,,,0.00,0,weatherlink.com 1.10,2013-05-19 05:21:00,
2013-05-19 00:36:00,76.0,72.0,29.74,SSE,168,1.0,2.0,86,0.00,,,0.00,0,weatherlink.com 1.10,2013-05-19 05:36:00,
2013-05-19 00:51:00,75.6,69.0,29.78,West,281,24.0,24.0,80,0.00,,,0.00,0,weatherlink.com 1.10,2013-05-19 05:51:00,
2013-05-19 01:06:00,71.5,60.0,29.81,West,259,9.0,19.0,67,0.00,,,0.00,0,weatherlink.com 1.10,2013-05-19 06:06:00,
2013-05-19 01:21:00,67.6,61.0,29.79,NW,313,6.0,15.0,78,0.00,,,0.00,0,weatherlink.com 1.10,2013-05-19 06:21:00,
2013-05-19 01:36:00,66.0,61.0,29.78,North,349,1.0,7.0,84,0.03,,,0.03,0,weatherlink.com 1.10,2013-05-19 06:36:00,
2013-05-19 01:51:00,65.1,61.0,29.76,NW,306,0.0,4.0,86,0.03,,,0.03,0,weatherlink.com 1.10,2013-05-19 06:51:00,
2013-05-19 02:06:00,64.5,61.0,29.76,NW,319,0.0,2.0,87,0.04,,,0.04,0,weatherlink.com 1.10,2013-05-19 07:06:00,
2013-05-19 02:21:00,64.3,61.0,29.76,NE,52,0.0,3.0,88,0.07,,,0.07,0,weatherlink.com 1.10,2013-05-19 07:21:00,
2013-05-19 02:36:00,63.8,61.0,29.75,NE,51,0.0,3.0,89,0.04,,,0.07,0,weatherlink.com 1.10,2013-05-19 07:36:00,
2013-05-19 02:51:00,63.7,61.0,29.74,East,87,1.0,3.0,90,0.06,,,0.09,0,weatherlink.com 1.10,2013-05-19 07:51:00,
2013-05-19 03:06:00,63.4,61.0,29.74,ESE,108,3.0,3.0,91,0.05,,,0.09,0,weatherlink.com 1.10,2013-05-19 08:06:00,
2013-05-19 03:21:00,63.2,61.0,29.74,East,95,0.0,5.0,91,0.03,,,0.10,0,weatherlink.com 1.10,2013-05-19 08:21:00,
2013-05-19 03:36:00,63.1,61.0,29.74,ESE,113,3.0,4.0,91,0.03,,,0.10,0,weatherlink.com 1.10,2013-05-19 08:36:00,
2013-05-19 03:51:00,63.1,61.0,29.73,East,79,5.0,8.0,92,0.01,,,0.10,0,weatherlink.com 1.10,2013-05-19 08:51:00,
2013-05-19 04:06:00,63.0,61.0,29.71,East,96,1.0,3.0,92,0.01,,,0.10,0,weatherlink.com 1.10,2013-05-19 09:06:00,
2013-05-19 04:21:00,63.0,61.0,29.70,East,96,2.0,5.0,92,0.00,,,0.10,0,weatherlink.com 1.10,2013-05-19 09:21:00,
2013-05-19 04:36:00,63.1,61.0,29.68,ENE,61,1.0,6.0,93,0.00,,,0.10,0,weatherlink.com 1.10,2013-05-19 09:36:00,
2013-05-19 04:51:00,63.5,62.0,29.69,East,100,1.0,5.0,93,0.00,,,0.10,0,weatherlink.com 1.10,2013-05-19 09:51:00,
2013-05-19 05:06:00,63.5,62.0,29.69,East,101,0.0,5.0,93,0.00,,,0.10,0,weatherlink.com 1.10,2013-05-19 10:06:00,
2013-05-19 05:21:00,63.7,62.0,29.68,East,101,1.0,5.0,93,0.00,,,0.10,0,weatherlink.com 1.10,2013-05-19 10:21:00,
2013-05-19 05:36:00,63.8,62.0,29.66,East,95,0.0,3.0,93,0.00,,,0.10,0,weatherlink.com 1.10,2013-05-19 10:36:00,
2013-05-19 05:51:00,63.7,62.0,29.66,East,95,1.0,1.0,93,0.00,,,0.10,0,weatherlink.com 1.10,2013-05-19 10:51:00,
2013-05-19 06:06:00,63.6,62.0,29.68,East,97,1.0,3.0,93,0.00,,,0.10,0,weatherlink.com 1.10,2013-05-19 11:06:00,
2013-05-19 06:21:00,63.6,62.0,29.71,ESE,109,1.0,5.0,94,0.00,,,0.10,5,weatherlink.com 1.10,2013-05-19 11:21:00,
2013-05-19 06:37:00,63.6,62.0,29.74,SE,140,0.0,6.0,94,0.00,,,0.10,9,weatherlink.com 1.10,2013-05-19 11:37:00,
2013-05-19 06:52:00,63.8,62.0,29.77,SSE,167,5.0,7.0,94,0.00,,,0.10,11,weatherlink.com 1.10,2013-05-19 11:52:00,
2013-05-19 07:07:00,63.9,62.0,29.77,SE,126,2.0,8.0,93,0.00,,,0.10,5,weatherlink.com 1.10,2013-05-19 12:07:00,
2013-05-19 07:22:00,64.6,62.0,29.76,South,184,3.0,13.0,92,0.03,,,0.13,0,weatherlink.com 1.10,2013-05-19 12:22:00,
2013-05-19 07:37:00,64.4,62.0,29.74,South,170,5.0,7.0,92,0.07,,,0.17,7,weatherlink.com 1.10,2013-05-19 12:37:00,
2013-05-19 07:52:00,64.3,62.0,29.71,ESE,107,4.0,9.0,92,0.09,,,0.19,5,weatherlink.com 1.10,2013-05-19 12:52:00,
2013-05-19 08:07:00,64.1,62.0,29.62,ENE,70,1.0,10.0,92,0.11,,,0.21,18,weatherlink.com 1.10,2013-05-19 13:07:00,
2013-05-19 08:22:00,63.9,62.0,29.65,SE,130,4.0,11.0,92,0.08,,,0.21,60,weatherlink.com 1.10,2013-05-19 13:22:00,
2013-05-19 08:37:00,64.1,62.0,29.66,SE,140,2.0,7.0,92,0.04,,,0.21,144,weatherlink.com 1.10,2013-05-19 13:37:00,
2013-05-19 08:52:00,64.9,63.0,29.66,ESE,102,0.0,8.0,93,0.02,,,0.21,216,weatherlink.com 1.10,2013-05-19 13:52:00,
2013-05-19 09:07:00,66.1,64.0,29.65,South,172,3.0,6.0,92,0.00,,,0.21,380,weatherlink.com 1.10,2013-05-19 14:07:00,
2013-05-19 09:22:00,68.3,65.0,29.64,ENE,65,5.0,12.0,88,0.00,,,0.21,459,weatherlink.com 1.10,2013-05-19 14:22:00,
2013-05-19 09:37:00,71.0,63.0,29.64,South,178,5.0,13.0,77,0.00,,,0.21,257,weatherlink.com 1.10,2013-05-19 14:37:00,
2013-05-19 09:52:00,73.3,65.0,29.63,SSE,167,4.0,8.0,75,0.00,,,0.21,584,weatherlink.com 1.10,2013-05-19 14:52:00,
2013-05-19 10:07:00,74.4,64.0,29.63,South,189,4.0,10.0,70,0.00,,,0.21,628,weatherlink.com 1.10,2013-05-19 15:07:00,
2013-05-19 10:22:00,75.3,65.0,29.64,South,175,2.0,9.0,70,0.00,,,0.21,617,weatherlink.com 1.10,2013-05-19 15:22:00,
2013-05-19 10:37:00,76.3,65.0,29.63,South,187,2.0,10.0,68,0.00,,,0.21,687,weatherlink.com 1.10,2013-05-19 15:37:00,
2013-05-19 10:52:00,77.3,65.0,29.63,SSE,153,7.0,13.0,67,0.00,,,0.21,717,weatherlink.com 1.10,2013-05-19 15:52:00,
2013-05-19 11:07:00,77.9,67.0,29.63,SSE,153,3.0,19.0,69,0.00,,,0.21,745,weatherlink.com 1.10,2013-05-19 16:07:00,
2013-05-19 11:22:00,78.4,67.0,29.62,ENE,61,11.0,16.0,69,0.00,,,0.21,766,weatherlink.com 1.10,2013-05-19 16:22:00,
2013-05-19 11:37:00,78.5,68.0,29.63,East,93,8.0,16.0,71,0.00,,,0.21,802,weatherlink.com 1.10,2013-05-19 16:37:00,
2013-05-19 11:52:00,79.1,69.0,29.63,ENE,57,7.0,14.0,71,0.01,,,0.22,814,weatherlink.com 1.10,2013-05-19 16:52:00,
2013-05-19 12:07:00,79.2,68.0,29.62,ENE,77,3.0,15.0,69,0.01,,,0.22,837,weatherlink.com 1.10,2013-05-19 17:07:00,
2013-05-19 12:22:00,78.7,68.0,29.62,SW,215,15.0,17.0,70,0.01,,,0.22,860,weatherlink.com 1.10,2013-05-19 17:22:00,
2013-05-19 12:37:00,79.4,69.0,29.62,East,87,1.0,17.0,70,0.01,,,0.22,949,weatherlink.com 1.10,2013-05-19 17:37:00,
2013-05-19 12:52:00,79.8,69.0,29.62,ENE,76,2.0,13.0,69,0.00,,,0.22,738,weatherlink.com 1.10,2013-05-19 17:52:00,
2013-05-19 13:07:00,79.2,68.0,29.61,South,184,5.0,15.0,69,0.00,,,0.22,503,weatherlink.com 1.10,2013-05-19 18:07:00,
2013-05-19 13:22:00,79.0,69.0,29.62,South,190,1.0,12.0,71,0.00,,,0.22,499,weatherlink.com 1.10,2013-05-19 18:22:00,
2013-05-19 13:37:00,79.0,68.0,29.61,WNW,284,2.0,10.0,70,0.00,,,0.22,223,weatherlink.com 1.10,2013-05-19 18:37:00,
2013-05-19 13:52:00,79.0,68.0,29.61,NE,36,2.0,8.0,70,0.00,,,0.22,418,weatherlink.com 1.10,2013-05-19 18:52:00,
2013-05-19 14:08:00,78.7,69.0,29.60,SSE,159,2.0,9.0,71,0.00,,,0.22,292,weatherlink.com 1.10,2013-05-19 19:08:00,
2013-05-19 14:23:00,78.7,69.0,29.60,SSE,164,1.0,8.0,72,0.00,,,0.22,283,weatherlink.com 1.10,2013-05-19 19:23:00,
2013-05-19 14:38:00,79.1,69.0,29.60,East,98,3.0,10.0,72,0.00,,,0.22,346,weatherlink.com 1.10,2013-05-19 19:38:00,
2013-05-19 14:53:00,79.5,70.0,29.60,ESE,103,4.0,7.0,72,0.00,,,0.22,258,weatherlink.com 1.10,2013-05-19 19:53:00,
2013-05-19 15:08:00,79.6,70.0,29.59,SW,234,9.0,9.0,72,0.00,,,0.22,759,weatherlink.com 1.10,2013-05-19 20:08:00,
2013-05-19 15:23:00,81.4,71.0,29.58,East,98,2.0,6.0,70,0.00,,,0.22,359,weatherlink.com 1.10,2013-05-19 20:23:00,
2013-05-19 15:38:00,82.0,71.0,29.59,South,186,1.0,7.0,70,0.00,,,0.22,306,weatherlink.com 1.10,2013-05-19 20:38:00,
2013-05-19 15:53:00,82.5,71.0,29.55,East,92,7.0,10.0,68,0.00,,,0.22,527,weatherlink.com 1.10,2013-05-19 20:53:00,
2013-05-19 16:08:00,82.9,71.0,29.55,South,181,3.0,12.0,68,0.00,,,0.22,789,weatherlink.com 1.10,2013-05-19 21:08:00,
2013-05-19 16:23:00,83.5,71.0,29.54,South,182,7.0,11.0,65,0.00,,,0.22,712,weatherlink.com 1.10,2013-05-19 21:23:00,
2013-05-19 16:38:00,83.6,71.0,29.55,SSW,192,4.0,8.0,65,0.00,,,0.22,188,weatherlink.com 1.10,2013-05-19 21:38:00,
2013-05-19 16:53:00,83.0,70.0,29.55,SSW,209,4.0,9.0,65,0.00,,,0.22,585,weatherlink.com 1.10,2013-05-19 21:53:00,
2013-05-19 17:08:00,82.3,70.0,29.54,SW,228,2.0,7.0,66,0.00,,,0.22,100,weatherlink.com 1.10,2013-05-19 22:08:00,
2013-05-19 17:23:00,81.1,70.0,29.53,SW,232,0.0,11.0,68,0.00,,,0.22,120,weatherlink.com 1.10,2013-05-19 22:23:00,
2013-05-19 17:38:00,80.5,69.0,29.52,SSE,156,0.0,8.0,69,0.00,,,0.22,88,weatherlink.com 1.10,2013-05-19 22:38:00,
2013-05-19 17:53:00,80.0,69.0,29.54,SSE,154,3.0,7.0,70,0.00,,,0.22,46,weatherlink.com 1.10,2013-05-19 22:53:00,
2013-05-19 18:08:00,79.4,69.0,29.53,East,94,1.0,6.0,70,0.00,,,0.22,21,weatherlink.com 1.10,2013-05-19 23:08:00,
2013-05-19 18:23:00,78.9,69.0,29.54,South,189,4.0,6.0,72,0.00,,,0.22,11,weatherlink.com 1.10,2013-05-19 23:23:00,
2013-05-19 18:38:00,78.5,69.0,29.55,SSW,207,1.0,6.0,72,0.00,,,0.22,7,weatherlink.com 1.10,2013-05-19 23:38:00,
2013-05-19 18:53:00,78.2,69.0,29.55,SSW,207,2.0,9.0,73,0.00,,,0.22,0,weatherlink.com 1.10,2013-05-19 23:53:00,
2013-05-19 19:08:00,77.6,69.0,29.57,WSW,239,5.0,8.0,75,0.00,,,0.22,0,weatherlink.com 1.10,2013-05-20 00:08:00,
2013-05-19 19:23:00,65.7,60.0,29.62,SW,226,12.0,21.0,83,0.25,,,0.47,0,weatherlink.com 1.10,2013-05-20 00:23:00,
2013-05-19 19:38:00,63.4,60.0,29.60,SSW,195,3.0,13.0,87,0.36,,,0.58,0,weatherlink.com 1.10,2013-05-20 00:38:00,
2013-05-19 19:53:00,63.3,59.0,29.58,SSE,156,4.0,8.0,87,0.38,,,0.60,0,weatherlink.com 1.10,2013-05-20 00:53:00,
2013-05-19 20:08:00,63.4,60.0,29.60,South,181,1.0,7.0,87,0.41,,,0.63,0,weatherlink.com 1.10,2013-05-20 01:08:00,
2013-05-19 20:23:00,63.2,59.0,29.55,SE,129,3.0,9.0,87,0.19,,,0.66,0,weatherlink.com 1.10,2013-05-20 01:23:00,
2013-05-19 20:38:00,63.2,59.0,29.55,SE,126,0.0,3.0,87,0.08,,,0.66,0,weatherlink.com 1.10,2013-05-20 01:38:00,
2013-05-19 20:53:00,63.1,60.0,29.58,WSW,238,4.0,7.0,88,0.06,,,0.66,0,weatherlink.com 1.10,2013-05-20 01:53:00,
2013-05-19 21:08:00,63.1,59.0,29.56,South,188,4.0,6.0,87,0.03,,,0.66,0,weatherlink.com 1.10,2013-05-20 02:08:00,
2013-05-19 21:23:00,63.4,60.0,29.57,WSW,242,1.0,8.0,87,0.00,,,0.66,0,weatherlink.com 1.10,2013-05-20 02:23:00,
2013-05-19 21:38:00,63.5,60.0,29.58,WNW,292,4.0,7.0,87,0.00,,,0.66,0,weatherlink.com 1.10,2013-05-20 02:38:00,
2013-05-19 21:53:00,63.5,60.0,29.54,SSE,158,2.0,5.0,87,0.00,,,0.66,0,weatherlink.com 1.10,2013-05-20 02:53:00,
2013-05-19 22:08:00,63.2,60.0,29.59,SE,127,2.0,4.0,88,0.00,,,0.66,0,weatherlink.com 1.10,2013-05-20 03:08:00,
2013-05-19 22:23:00,63.3,60.0,29.59,ESE,121,0.0,4.0,89,0.00,,,0.66,0,weatherlink.com 1.10,2013-05-20 03:23:00,
2013-05-19 22:38:00,63.4,60.0,29.61,WSW,241,0.0,4.0,89,0.00,,,0.66,0,weatherlink.com 1.10,2013-05-20 03:38:00,
2013-05-19 22:53:00,63.5,60.0,29.62,ESE,119,1.0,4.0,89,0.00,,,0.66,0,weatherlink.com 1.10,2013-05-20 03:53:00,
2013-05-19 23:08:00,63.6,60.0,29.62,ESE,117,0.0,3.0,88,0.00,,,0.66,0,weatherlink.com 1.10,2013-05-20 04:08:00,
2013-05-19 23:23:00,63.6,60.0,29.64,ESE,121,0.0,4.0,88,0.00,,,0.66,0,weatherlink.com 1.10,2013-05-20 04:23:00,
2013-05-19 23:38:00,63.5,60.0,29.64,East,92,0.0,5.0,88,0.00,,,0.66,0,weatherlink.com 1.10,2013-05-20 04:38:00,
2013-05-19 23:53:00,63.4,60.0,29.63,East,95,0.0,3.0,88,0.00,,,0.66,0,weatherlink.com 1.10,2013-05-20 04:53:00,